createdAt,value
2022-08-26T00:01:56.786Z,21.40
2022-08-26T00:04:25.749Z,21.40
2022-08-26T00:06:54.935Z,21.40
2022-08-26T00:09:23.583Z,21.40
2022-08-26T00:11:51.963Z,21.40
2022-08-26T00:14:18.865Z,21.40
2022-08-26T00:16:47.801Z,21.40
2022-08-26T00:19:20.592Z,21.40
2022-08-26T00:21:49.725Z,21.40
2022-08-26T00:24:18.456Z,21.40
2022-08-26T00:26:45.431Z,21.40
2022-08-26T00:29:13.206Z,21.30
2022-08-26T00:31:40.804Z,21.30
2022-08-26T00:34:09.373Z,21.30
2022-08-26T00:36:36.811Z,21.30
2022-08-26T00:39:04.529Z,21.30
2022-08-26T00:41:31.344Z,21.30
2022-08-26T00:43:58.303Z,21.20
2022-08-26T00:46:31.428Z,21.20
2022-08-26T00:49:11.822Z,21.20
2022-08-26T00:51:45.711Z,21.10
2022-08-26T00:54:13.390Z,21.10
2022-08-26T00:56:48.960Z,21.10
2022-08-26T00:59:17.925Z,21.10
2022-08-26T01:01:46.037Z,21.10
2022-08-26T01:04:19.419Z,21.00
2022-08-26T01:06:48.540Z,21.00
2022-08-26T01:09:16.257Z,21.00
2022-08-26T01:11:43.444Z,20.90
2022-08-26T01:14:12.397Z,20.90
2022-08-26T01:16:39.817Z,20.80
2022-08-26T01:19:26.536Z,20.80
2022-08-26T01:22:05.859Z,20.80
2022-08-26T01:24:32.703Z,20.80
2022-08-26T01:27:04.581Z,20.80
2022-08-26T01:29:33.750Z,20.80
2022-08-26T01:32:01.109Z,20.80
2022-08-26T01:34:30.336Z,20.70
2022-08-26T01:37:19.065Z,20.70
2022-08-26T01:39:50.140Z,20.60
2022-08-26T01:42:19.618Z,20.50
2022-08-26T01:45:07.904Z,20.50
2022-08-26T01:47:36.482Z,20.40
2022-08-26T01:50:09.420Z,20.40
2022-08-26T01:52:39.587Z,20.30
2022-08-26T01:55:07.226Z,20.30
2022-08-26T01:57:34.636Z,20.30
2022-08-26T02:00:08.264Z,20.20
2022-08-26T02:02:35.097Z,20.20
2022-08-26T02:05:06.798Z,20.20
2022-08-26T02:07:34.277Z,20.30
2022-08-26T02:10:01.183Z,20.20
2022-08-26T02:12:28.339Z,20.20
2022-08-26T02:15:00.446Z,20.20
2022-08-26T02:17:33.937Z,20.20
2022-08-26T02:20:02.227Z,20.20
2022-08-26T02:22:30.843Z,20.20
2022-08-26T02:25:19.731Z,20.20
2022-08-26T02:27:47.185Z,20.30
2022-08-26T02:30:23.305Z,20.30
2022-08-26T02:32:51.864Z,20.30
2022-08-26T02:35:20.607Z,20.20
2022-08-26T02:37:52.017Z,20.20
2022-08-26T02:40:27.202Z,20.10
2022-08-26T02:42:55.896Z,20.10
2022-08-26T02:45:24.570Z,20.00
2022-08-26T02:47:52.500Z,20.00
2022-08-26T02:50:20.898Z,19.80
2022-08-26T02:52:48.438Z,19.80
2022-08-26T02:55:15.979Z,19.70
2022-08-26T02:57:43.584Z,19.70
2022-08-26T03:00:14.601Z,19.60
2022-08-26T03:02:41.622Z,19.60
2022-08-26T03:05:08.887Z,19.50
2022-08-26T03:07:35.683Z,19.50
2022-08-26T03:10:08.172Z,19.40
2022-08-26T03:12:35.994Z,19.40
2022-08-26T03:15:03.278Z,19.40
2022-08-26T03:17:44.944Z,19.30
2022-08-26T03:20:11.845Z,19.30
2022-08-26T03:22:40.987Z,19.30
2022-08-26T03:25:12.106Z,19.40
2022-08-26T03:27:39.107Z,19.40
2022-08-26T03:30:25.541Z,19.40
2022-08-26T03:32:53.553Z,19.50
2022-08-26T03:35:20.593Z,19.50
2022-08-26T03:37:49.524Z,19.60
2022-08-26T03:40:16.548Z,19.60
2022-08-26T03:42:47.774Z,19.60
2022-08-26T03:45:18.162Z,19.60
2022-08-26T03:47:45.789Z,19.70
2022-08-26T03:50:17.739Z,19.70
2022-08-26T03:52:51.675Z,19.70
2022-08-26T03:55:20.087Z,19.70
2022-08-26T03:57:50.904Z,19.70
2022-08-26T04:00:18.789Z,19.70
2022-08-26T04:02:48.797Z,19.70
2022-08-26T04:05:18.041Z,19.60
2022-08-26T04:07:45.588Z,19.70
2022-08-26T04:10:14.771Z,19.60
2022-08-26T04:12:46.227Z,19.60
2022-08-26T04:15:15.729Z,19.60
2022-08-26T04:17:43.059Z,19.50
2022-08-26T04:20:13.932Z,19.50
2022-08-26T04:22:43.204Z,19.50
2022-08-26T04:25:10.669Z,19.40
2022-08-26T04:27:37.542Z,19.40
2022-08-26T04:30:05.495Z,19.40
2022-08-26T04:32:32.282Z,19.40
2022-08-26T04:34:59.106Z,19.50
2022-08-26T04:37:28.643Z,19.50
2022-08-26T04:39:55.532Z,19.60
2022-08-26T04:42:26.077Z,19.60
2022-08-26T04:44:53.280Z,19.60
2022-08-26T04:47:20.091Z,19.60
2022-08-26T04:49:46.978Z,19.60
2022-08-26T04:52:13.804Z,19.60
2022-08-26T04:54:41.898Z,19.60
2022-08-26T04:57:08.938Z,19.60
2022-08-26T04:59:39.048Z,19.60
2022-08-26T05:02:06.965Z,19.60
2022-08-26T05:04:34.467Z,19.60
2022-08-26T05:07:02.854Z,19.70
2022-08-26T05:09:29.901Z,19.70
2022-08-26T05:11:57.420Z,19.80
2022-08-26T05:14:24.447Z,19.80
2022-08-26T05:16:51.755Z,19.80
2022-08-26T05:19:19.610Z,20.00
2022-08-26T05:21:48.392Z,20.10
2022-08-26T05:24:15.392Z,20.10
2022-08-26T05:26:42.536Z,20.20
2022-08-26T05:29:11.968Z,20.20
2022-08-26T05:31:38.817Z,20.30
2022-08-26T05:34:05.958Z,20.40
2022-08-26T05:36:35.643Z,20.60
2022-08-26T05:39:05.796Z,20.70
2022-08-26T05:41:36.505Z,20.90
2022-08-26T05:44:06.240Z,21.20
2022-08-26T05:46:34.427Z,21.60
2022-08-26T05:49:02.458Z,21.90
2022-08-26T05:51:30.919Z,22.30
2022-08-26T05:53:58.171Z,22.60
2022-08-26T05:56:27.652Z,23.00
2022-08-26T05:58:56.274Z,23.40
2022-08-26T06:01:28.007Z,23.80
2022-08-26T06:03:59.669Z,24.00
2022-08-26T06:06:31.838Z,24.00
2022-08-26T06:09:01.266Z,23.70
2022-08-26T06:11:30.591Z,23.50
2022-08-26T06:14:03.605Z,23.40
2022-08-26T06:16:32.537Z,23.30
2022-08-26T06:19:02.895Z,23.20
2022-08-26T06:21:33.215Z,23.20
2022-08-26T06:24:28.186Z,23.30
2022-08-26T06:27:01.490Z,23.60
2022-08-26T06:29:33.542Z,24.00
2022-08-26T06:32:01.106Z,24.30
2022-08-26T06:34:30.390Z,24.70
2022-08-26T06:36:59.751Z,25.20
2022-08-26T06:39:28.315Z,25.80
2022-08-26T06:41:58.602Z,26.20
2022-08-26T06:44:25.880Z,26.70
2022-08-26T06:46:53.583Z,27.20
2022-08-26T06:49:26.992Z,27.70
2022-08-26T06:51:58.607Z,27.90
2022-08-26T06:54:26.718Z,27.90
2022-08-26T06:56:53.849Z,27.80
2022-08-26T06:59:21.900Z,27.60
2022-08-26T07:01:49.644Z,27.80
2022-08-26T07:04:20.098Z,27.90
2022-08-26T07:06:52.418Z,28.10
2022-08-26T07:09:22.325Z,28.10
2022-08-26T07:11:49.348Z,28.40
2022-08-26T07:14:19.367Z,28.60
2022-08-26T07:16:50.261Z,28.50
2022-08-26T07:19:30.195Z,28.70
2022-08-26T07:22:04.589Z,29.20
2022-08-26T07:24:36.132Z,29.70
2022-08-26T07:27:06.004Z,30.20
2022-08-26T07:29:34.202Z,30.20
2022-08-26T07:32:01.509Z,30.30
2022-08-26T07:34:28.624Z,30.30
2022-08-26T07:36:56.980Z,30.60
2022-08-26T07:39:24.870Z,30.50
2022-08-26T07:41:52.846Z,30.40
2022-08-26T07:44:20.058Z,30.20
2022-08-26T07:46:52.243Z,30.50
2022-08-26T07:49:22.580Z,30.80
2022-08-26T07:51:50.409Z,31.20
2022-08-26T07:54:18.727Z,31.70
2022-08-26T07:56:46.451Z,31.90
2022-08-26T07:59:15.128Z,32.20
2022-08-26T08:01:44.645Z,32.20
2022-08-26T08:04:18.156Z,32.00
2022-08-26T08:06:46.166Z,31.80
2022-08-26T08:09:14.931Z,31.80
2022-08-26T08:11:44.888Z,31.80
2022-08-26T08:14:12.860Z,31.40
2022-08-26T08:16:42.829Z,31.10
2022-08-26T08:19:14.887Z,30.80
2022-08-26T08:21:43.285Z,30.70
2022-08-26T08:24:11.484Z,30.60
2022-08-26T08:26:38.678Z,30.60
2022-08-26T08:29:06.298Z,30.60
2022-08-26T08:34:21.494Z,30.40
2022-08-26T08:36:48.633Z,30.40
2022-08-26T08:39:16.783Z,30.40
2022-08-26T08:41:56.157Z,30.70
2022-08-26T08:47:04.734Z,31.40
2022-08-26T08:49:34.215Z,31.70
2022-08-26T08:52:12.072Z,32.00
2022-08-26T08:54:38.996Z,32.20
2022-08-26T08:57:27.859Z,31.70
2022-08-26T09:00:07.482Z,31.50
2022-08-26T09:02:51.043Z,31.70
2022-08-26T09:05:22.981Z,32.00
2022-08-26T09:08:02.714Z,32.10
2022-08-26T09:10:51.050Z,32.20
2022-08-26T09:13:24.947Z,32.10
2022-08-26T09:16:08.286Z,32.30
2022-08-26T09:19:01.778Z,31.80
2022-08-26T09:21:31.365Z,31.60
2022-08-26T09:23:58.710Z,31.70
2022-08-26T09:26:30.786Z,32.10
2022-08-26T09:29:09.172Z,32.40
2022-08-26T09:31:39.139Z,32.40
2022-08-26T09:34:17.973Z,32.30
2022-08-26T09:36:57.679Z,32.70
2022-08-26T09:39:27.770Z,33.10
2022-08-26T09:42:20.518Z,33.70
2022-08-26T09:44:53.491Z,34.00
2022-08-26T09:47:26.356Z,34.00
2022-08-26T09:50:01.583Z,34.10
2022-08-26T09:52:29.063Z,34.30
2022-08-26T09:55:05.357Z,34.20
2022-08-26T09:57:35.207Z,34.30
2022-08-26T10:00:22.876Z,34.00
2022-08-26T10:02:51.120Z,33.80
2022-08-26T10:05:29.915Z,33.40
2022-08-26T10:07:59.719Z,32.80
2022-08-26T10:10:32.794Z,32.40
2022-08-26T10:13:05.804Z,32.10
2022-08-26T10:15:55.646Z,32.00
2022-08-26T10:18:28.799Z,32.30
2022-08-26T10:21:18.043Z,32.30
2022-08-26T10:23:51.807Z,32.20
2022-08-26T10:26:38.718Z,32.30
2022-08-26T10:29:15.639Z,32.20
2022-08-26T10:31:51.630Z,31.90
2022-08-26T10:34:19.275Z,31.60
2022-08-26T10:37:14.701Z,31.40
2022-08-26T10:39:58.472Z,31.60
2022-08-26T10:42:42.890Z,31.70
2022-08-26T10:45:22.085Z,31.70
2022-08-26T10:47:52.274Z,31.80
2022-08-26T10:50:20.297Z,31.90
2022-08-26T10:53:10.341Z,32.50
2022-08-26T10:56:02.621Z,33.20
2022-08-26T10:59:01.510Z,33.60
2022-08-26T11:01:43.048Z,33.90
2022-08-26T11:04:22.653Z,34.00
2022-08-26T11:07:10.511Z,33.80
2022-08-26T11:09:47.876Z,34.00
2022-08-26T11:14:58.470Z,33.90
2022-08-26T11:17:45.204Z,34.00
2022-08-26T11:20:33.972Z,34.20
2022-08-26T11:23:13.926Z,34.10
2022-08-26T11:25:57.054Z,33.80
2022-08-26T11:28:50.403Z,33.50
2022-08-26T11:31:26.817Z,33.80
2022-08-26T11:33:54.331Z,34.00
2022-08-26T11:36:42.962Z,34.20
2022-08-26T11:39:36.582Z,34.10
2022-08-26T11:42:20.349Z,34.30
2022-08-26T11:44:49.300Z,34.30
2022-08-26T11:47:25.416Z,34.60
2022-08-26T11:50:13.701Z,34.80
2022-08-26T11:52:40.802Z,34.90
2022-08-26T11:55:12.259Z,35.00
2022-08-26T11:57:50.121Z,34.80
2022-08-26T12:00:27.500Z,34.70
2022-08-26T12:03:05.802Z,34.70
2022-08-26T12:05:39.470Z,34.70
2022-08-26T12:08:10.071Z,34.80
2022-08-26T12:10:38.256Z,34.90
2022-08-26T12:13:08.113Z,35.00
2022-08-26T12:15:35.998Z,35.00
2022-08-26T12:18:28.808Z,35.00
2022-08-26T12:20:59.987Z,35.10
2022-08-26T12:23:36.354Z,35.10
2022-08-26T12:26:34.867Z,35.10
2022-08-26T12:29:09.942Z,35.00
2022-08-26T12:31:48.046Z,34.80
2022-08-26T12:34:17.842Z,34.80
2022-08-26T12:36:53.768Z,34.70
2022-08-26T12:39:35.616Z,34.40
2022-08-26T12:42:25.553Z,34.00
2022-08-26T12:45:00.511Z,34.00
2022-08-26T12:47:42.914Z,34.20
2022-08-26T12:50:46.339Z,34.20
2022-08-26T12:53:13.280Z,34.30
2022-08-26T12:55:54.126Z,34.60
2022-08-26T12:58:38.744Z,34.90
2022-08-26T13:01:08.799Z,35.00
2022-08-26T13:03:38.749Z,34.90
2022-08-26T13:06:30.196Z,34.50
2022-08-26T13:09:07.443Z,33.90
2022-08-26T13:11:54.705Z,32.00
2022-08-26T13:14:24.684Z,29.90
2022-08-26T13:16:53.004Z,28.30
2022-08-26T13:19:22.949Z,27.10
2022-08-26T13:21:58.705Z,26.40
2022-08-26T13:24:42.108Z,25.90
2022-08-26T13:27:12.901Z,25.30
2022-08-26T13:29:40.508Z,24.90
2022-08-26T13:32:09.142Z,24.90
2022-08-26T13:34:37.759Z,24.90
2022-08-26T13:37:06.201Z,25.10
2022-08-26T13:39:33.495Z,25.30
2022-08-26T13:42:00.552Z,25.40
2022-08-26T13:44:28.024Z,25.50
2022-08-26T13:46:55.118Z,25.70
2022-08-26T13:49:22.777Z,26.00
2022-08-26T13:51:49.816Z,26.20
2022-08-26T13:54:16.979Z,26.40
2022-08-26T13:56:44.068Z,26.70
2022-08-26T13:59:11.193Z,27.10
2022-08-26T14:01:39.839Z,27.60
2022-08-26T14:04:09.252Z,28.00
2022-08-26T14:06:36.750Z,28.50
2022-08-26T14:09:04.805Z,29.00
2022-08-26T14:11:32.202Z,29.40
2022-08-26T14:14:17.745Z,29.70
2022-08-26T14:16:59.581Z,29.90
2022-08-26T14:19:30.607Z,30.10
2022-08-26T14:22:00.791Z,30.10
2022-08-26T14:24:28.949Z,30.10
2022-08-26T14:26:59.539Z,30.10
2022-08-26T14:29:26.744Z,30.10
2022-08-26T14:31:56.496Z,30.00
2022-08-26T14:34:25.090Z,29.90
2022-08-26T14:36:52.118Z,29.70
2022-08-26T14:39:19.003Z,29.40
2022-08-26T14:41:54.636Z,29.20
2022-08-26T14:44:27.506Z,29.20
2022-08-26T14:46:59.518Z,28.90
2022-08-26T14:49:27.435Z,28.60
2022-08-26T14:51:55.276Z,28.20
2022-08-26T14:54:22.322Z,27.80
2022-08-26T14:56:49.455Z,27.50
2022-08-26T14:59:23.290Z,27.30
2022-08-26T15:01:53.659Z,27.10
2022-08-26T15:04:21.661Z,27.10
2022-08-26T15:06:49.297Z,26.90
2022-08-26T15:09:16.673Z,26.80
2022-08-26T15:11:43.813Z,26.60
2022-08-26T15:14:19.158Z,26.40
2022-08-26T15:16:52.620Z,26.20
2022-08-26T15:19:20.826Z,26.00
2022-08-26T15:21:48.606Z,25.90
2022-08-26T15:24:18.850Z,25.80
2022-08-26T15:26:47.002Z,25.80
2022-08-26T15:29:14.746Z,25.90
2022-08-26T15:31:41.778Z,25.80
2022-08-26T15:34:15.829Z,25.80
2022-08-26T15:36:44.945Z,25.70
2022-08-26T15:39:12.797Z,25.50
2022-08-26T15:41:41.185Z,25.10
2022-08-26T15:44:09.572Z,24.80
2022-08-26T15:46:37.615Z,24.40
2022-08-26T15:49:07.107Z,24.10
2022-08-26T15:51:45.547Z,23.80
2022-08-26T15:54:14.064Z,23.60
2022-08-26T15:56:41.037Z,23.40
2022-08-26T15:59:11.831Z,23.20
2022-08-26T16:01:40.033Z,23.10
2022-08-26T16:04:07.322Z,23.10
2022-08-26T16:06:36.054Z,23.20
2022-08-26T16:09:04.640Z,23.20
2022-08-26T16:11:31.774Z,23.10
2022-08-26T16:13:58.997Z,23.00
2022-08-26T16:16:26.788Z,23.00
2022-08-26T16:18:54.065Z,22.90
2022-08-26T16:21:28.906Z,22.90
2022-08-26T16:23:57.360Z,22.80
2022-08-26T16:26:29.819Z,22.70
2022-08-26T16:28:57.019Z,22.70
2022-08-26T16:31:24.337Z,22.60
2022-08-26T16:33:51.723Z,22.50
2022-08-26T16:36:19.953Z,22.50
2022-08-26T16:38:55.402Z,22.50
2022-08-26T16:41:27.810Z,22.40
2022-08-26T16:43:55.563Z,22.30
2022-08-26T16:46:26.045Z,22.30
2022-08-26T16:48:54.950Z,22.20
2022-08-26T16:51:23.984Z,22.10
2022-08-26T16:53:52.458Z,22.10
2022-08-26T16:56:23.174Z,22.10
2022-08-26T16:58:54.866Z,22.00
2022-08-26T17:01:23.084Z,22.00
2022-08-26T17:03:51.116Z,21.90
2022-08-26T17:06:18.619Z,21.70
2022-08-26T17:08:55.819Z,21.70
2022-08-26T17:11:22.962Z,21.70
2022-08-26T17:13:50.100Z,21.70
2022-08-26T17:16:17.851Z,21.70
2022-08-26T17:18:44.976Z,21.80
2022-08-26T17:21:13.823Z,21.80
2022-08-26T17:23:42.263Z,21.90
2022-08-26T17:26:10.739Z,22.00
2022-08-26T17:28:41.476Z,22.10
2022-08-26T17:31:13.084Z,22.20
2022-08-26T17:33:41.282Z,22.30
2022-08-26T17:36:09.671Z,22.40
2022-08-26T17:38:38.364Z,22.50
2022-08-26T17:41:10.720Z,22.60
2022-08-26T17:43:38.712Z,22.60
2022-08-26T17:46:08.333Z,22.60
2022-08-26T17:48:37.049Z,22.50
2022-08-26T17:51:15.500Z,22.40
2022-08-26T17:53:43.307Z,22.40
2022-08-26T17:56:13.252Z,22.40
2022-08-26T17:58:40.628Z,22.30
2022-08-26T18:01:15.349Z,22.40
2022-08-26T18:03:42.423Z,22.40
2022-08-26T18:06:11.632Z,22.30
2022-08-26T18:08:39.671Z,22.20
2022-08-26T18:11:24.819Z,22.20
2022-08-26T18:13:52.037Z,22.10
2022-08-26T18:16:19.882Z,22.10
2022-08-26T18:18:53.710Z,22.20
2022-08-26T18:21:26.442Z,22.10
2022-08-26T18:23:54.490Z,22.10
2022-08-26T18:26:28.003Z,22.10
2022-08-26T18:28:55.070Z,22.10
2022-08-26T18:31:22.743Z,22.10
2022-08-26T18:33:50.269Z,22.10
2022-08-26T18:36:20.218Z,22.00
2022-08-26T18:38:48.408Z,22.00
2022-08-26T18:41:25.385Z,22.00
2022-08-26T18:43:53.536Z,22.00
2022-08-26T18:46:23.111Z,21.90
2022-08-26T18:48:51.006Z,21.90
2022-08-26T18:51:21.411Z,22.00
2022-08-26T18:53:48.558Z,22.00
2022-08-26T18:56:18.147Z,22.00
2022-08-26T18:58:45.910Z,21.90
2022-08-26T19:01:13.910Z,21.90
2022-08-26T19:03:41.818Z,22.00
2022-08-26T19:06:12.814Z,22.00
2022-08-26T19:08:44.547Z,22.00
2022-08-26T19:11:13.892Z,22.00
2022-08-26T19:13:42.769Z,22.00
2022-08-26T19:16:21.074Z,22.00
2022-08-26T19:18:48.672Z,22.00
2022-08-26T19:21:16.037Z,21.90
2022-08-26T19:23:44.406Z,21.80
2022-08-26T19:26:12.426Z,21.80
2022-08-26T19:28:40.914Z,21.70
2022-08-26T19:31:10.631Z,21.70
2022-08-26T19:33:40.352Z,21.60
2022-08-26T19:36:11.462Z,21.60
2022-08-26T19:38:41.738Z,21.50
2022-08-26T19:41:23.718Z,21.50
2022-08-26T19:43:53.789Z,21.50
2022-08-26T19:46:26.864Z,21.40
2022-08-26T19:48:55.821Z,21.50
2022-08-26T19:51:29.431Z,21.40
2022-08-26T19:53:59.056Z,21.40
2022-08-26T19:56:27.059Z,21.30
2022-08-26T19:58:55.115Z,21.20
2022-08-26T20:01:23.059Z,21.20
2022-08-26T20:03:50.776Z,21.10
2022-08-26T20:06:18.685Z,21.10
2022-08-26T20:08:45.924Z,21.00
2022-08-26T20:11:16.078Z,21.00
2022-08-26T20:13:44.478Z,21.00
2022-08-26T20:16:12.310Z,20.90
2022-08-26T20:19:02.357Z,20.90
2022-08-26T20:21:33.223Z,20.80
2022-08-26T20:24:04.647Z,20.90
2022-08-26T20:26:35.276Z,20.90
2022-08-26T20:29:02.478Z,20.80
2022-08-26T20:31:30.253Z,20.80
2022-08-26T20:33:57.966Z,20.80
2022-08-26T20:36:27.040Z,20.80
2022-08-26T20:38:55.511Z,20.80
2022-08-26T20:41:25.467Z,20.70
2022-08-26T20:43:53.842Z,20.70
2022-08-26T20:46:24.675Z,20.70
2022-08-26T20:48:52.833Z,20.70
2022-08-26T20:51:20.902Z,20.60
2022-08-26T20:53:47.923Z,20.60
2022-08-26T20:56:16.377Z,20.60
2022-08-26T20:58:43.570Z,20.60
2022-08-26T21:01:19.340Z,20.60
2022-08-26T21:03:47.411Z,20.60
2022-08-26T21:06:14.712Z,20.60
2022-08-26T21:08:43.418Z,20.60
2022-08-26T21:11:12.463Z,20.60
2022-08-26T21:14:03.420Z,20.50
2022-08-26T21:16:27.319Z,20.50
2022-08-26T21:18:54.375Z,20.50
2022-08-26T21:21:25.306Z,20.50
2022-08-26T21:23:52.522Z,20.50
2022-08-26T21:26:19.860Z,20.50
2022-08-26T21:28:47.298Z,20.40
2022-08-26T21:31:21.510Z,20.40
2022-08-26T21:33:48.984Z,20.50
2022-08-26T21:36:16.153Z,20.40
2022-08-26T21:38:43.368Z,20.40
2022-08-26T21:41:14.517Z,20.40
2022-08-26T21:43:43.205Z,20.40
2022-08-26T21:46:17.221Z,20.30
2022-08-26T21:48:50.376Z,20.30
2022-08-26T21:51:21.211Z,20.30
2022-08-26T21:53:48.904Z,20.20
2022-08-26T21:56:18.149Z,20.20
2022-08-26T21:58:45.784Z,20.20
2022-08-26T22:01:15.929Z,20.10
2022-08-26T22:03:47.080Z,20.10
2022-08-26T22:06:19.933Z,20.10
2022-08-26T22:08:47.328Z,20.10
2022-08-26T22:11:14.453Z,20.00
2022-08-26T22:13:42.546Z,20.00
2022-08-26T22:16:10.393Z,20.00
2022-08-26T22:18:38.330Z,20.00
2022-08-26T22:21:08.604Z,19.90
2022-08-26T22:23:37.372Z,20.00
2022-08-26T22:26:05.837Z,19.90
2022-08-26T22:28:33.143Z,19.90
2022-08-26T22:31:02.044Z,19.90
2022-08-26T22:33:29.239Z,19.80
2022-08-26T22:35:56.358Z,19.80
2022-08-26T22:38:24.062Z,19.70
2022-08-26T22:40:56.933Z,19.70
2022-08-26T22:43:25.218Z,19.70
2022-08-26T22:45:53.209Z,19.70
2022-08-26T22:48:23.510Z,19.70
2022-08-26T22:50:51.384Z,19.70
2022-08-26T22:53:18.855Z,19.70
2022-08-26T22:55:46.354Z,19.70
2022-08-26T22:58:15.775Z,19.70
2022-08-26T23:00:45.159Z,19.70
2022-08-26T23:03:12.950Z,19.70
2022-08-26T23:05:41.121Z,19.70
2022-08-26T23:08:09.137Z,19.70
2022-08-26T23:10:37.092Z,19.60
2022-08-26T23:13:05.564Z,19.60
2022-08-26T23:15:32.654Z,19.60
2022-08-26T23:17:59.680Z,19.60
2022-08-26T23:20:28.511Z,19.60
2022-08-26T23:22:56.496Z,19.60
2022-08-26T23:25:24.399Z,19.70
2022-08-26T23:27:52.356Z,19.60
2022-08-26T23:30:23.799Z,19.60
2022-08-26T23:32:51.418Z,19.60
2022-08-26T23:35:22.422Z,19.60
2022-08-26T23:37:53.052Z,19.60
2022-08-26T23:40:28.905Z,19.50
2022-08-26T23:42:57.509Z,19.50
2022-08-26T23:45:25.850Z,19.50
2022-08-26T23:47:54.190Z,19.50
2022-08-26T23:50:48.296Z,19.50
2022-08-26T23:53:21.293Z,19.50
2022-08-26T23:55:50.973Z,19.40
2022-08-26T23:58:19.937Z,19.40
